createdAt,value
2023-03-01T00:09:08.526Z,22.47
2023-03-01T00:10:08.516Z,22.48
2023-03-01T00:11:08.610Z,22.48
2023-03-01T00:12:08.492Z,22.47
2023-03-01T00:13:08.484Z,22.47
2023-03-01T00:14:08.470Z,22.47
2023-03-01T00:15:08.479Z,22.45
2023-03-01T00:16:08.516Z,22.47
2023-03-01T00:17:08.498Z,22.47
2023-03-01T00:18:08.427Z,22.45
2023-03-01T00:19:08.421Z,22.47
2023-03-01T00:20:08.470Z,22.47
2023-03-01T00:21:08.391Z,22.44
2023-03-01T00:22:08.368Z,22.50
2023-03-01T00:23:08.360Z,22.45
2023-03-01T00:24:08.353Z,22.45
2023-03-01T00:56:08.035Z,22.41
2023-03-01T00:57:08.027Z,22.41
2023-03-01T00:58:08.014Z,22.41
2023-03-01T00:59:08.015Z,22.43
2023-03-01T01:00:07.993Z,22.41
2023-03-01T01:01:08.037Z,22.44
2023-03-01T01:02:08.055Z,22.43
2023-03-01T01:03:07.991Z,22.43
2023-03-01T01:04:07.966Z,22.43
2023-03-01T01:05:07.938Z,22.40
2023-03-01T01:06:07.912Z,22.41
2023-03-01T01:07:07.907Z,22.43
2023-03-01T01:08:07.903Z,22.40
2023-03-01T01:09:07.985Z,22.40
2023-03-01T01:10:07.887Z,22.41
2023-03-01T01:11:07.878Z,22.41
2023-03-01T01:12:07.876Z,22.41
2023-03-01T01:13:07.860Z,22.43
2023-03-01T01:14:07.924Z,22.41
2023-03-01T01:15:07.845Z,22.43
2023-03-01T01:16:07.865Z,22.44
2023-03-01T01:17:07.830Z,22.43
2023-03-01T01:18:07.816Z,22.40
2023-03-01T01:19:07.830Z,22.41
2023-03-01T01:20:07.803Z,22.43
2023-03-01T01:21:07.790Z,22.38
2023-03-01T01:22:07.775Z,22.40
2023-03-01T01:23:07.774Z,22.41
2023-03-01T01:24:07.766Z,22.40
2023-03-01T01:25:07.778Z,22.40
2023-03-01T01:26:07.752Z,22.38
2023-03-01T01:27:07.743Z,22.41
2023-03-01T01:28:07.738Z,22.40
2023-03-01T01:29:07.717Z,22.40
2023-03-01T01:30:07.716Z,22.41
2023-03-01T01:31:07.771Z,22.41
2023-03-01T01:32:07.720Z,22.40
2023-03-01T01:33:07.672Z,22.40
2023-03-01T01:34:07.656Z,22.40
2023-03-01T01:35:08.220Z,22.40
2023-03-01T01:36:07.643Z,22.37
2023-03-01T01:37:07.617Z,22.37
2023-03-01T01:38:07.601Z,22.38
2023-03-01T01:39:07.583Z,22.38
2023-03-01T01:40:07.587Z,22.40
2023-03-01T01:41:07.582Z,22.40
2023-03-01T01:42:07.565Z,22.37
2023-03-01T01:43:07.559Z,22.38
2023-03-01T01:44:07.538Z,22.38
2023-03-01T01:45:07.523Z,22.38
2023-03-01T01:46:07.533Z,22.38
2023-03-01T01:47:07.515Z,22.40
2023-03-01T01:49:07.487Z,22.38
2023-03-01T01:50:07.477Z,22.37
2023-03-01T01:51:07.471Z,22.38
2023-03-01T01:52:07.458Z,22.34
2023-03-01T01:53:08.231Z,22.37
2023-03-01T01:54:07.421Z,22.35
2023-03-01T01:55:07.410Z,22.37
2023-03-01T01:56:07.401Z,22.37
2023-03-01T01:57:07.380Z,22.38
2023-03-01T01:58:07.370Z,22.37
2023-03-01T02:00:07.407Z,22.37
2023-03-01T02:01:07.341Z,22.37
2023-03-01T02:02:07.325Z,22.35
2023-03-01T02:03:07.443Z,22.38
2023-03-01T02:04:07.299Z,22.35
2023-03-01T02:05:07.284Z,22.37
2023-03-01T03:38:06.110Z,22.65
2023-03-01T03:44:06.110Z,22.66
2023-03-01T03:45:06.138Z,22.71
2023-03-01T03:46:06.947Z,22.69
2023-03-01T03:47:06.156Z,22.69
2023-03-01T03:48:06.189Z,22.68
2023-03-01T03:49:06.210Z,22.66
2023-03-01T03:50:06.310Z,22.68
2023-03-01T03:51:06.249Z,22.68
2023-03-01T03:52:06.278Z,22.68
2023-03-01T03:53:06.294Z,22.69
2023-03-01T03:54:06.285Z,22.69
2023-03-01T03:55:06.256Z,22.69
2023-03-01T03:56:06.678Z,22.69
2023-03-01T03:57:06.257Z,22.69
2023-03-01T03:58:06.253Z,22.71
2023-03-01T03:59:06.252Z,22.66
2023-03-01T04:00:06.302Z,22.69
2023-03-01T04:01:06.282Z,22.69
2023-03-01T04:02:06.267Z,22.69
2023-03-01T04:03:06.259Z,22.71
2023-03-01T04:04:06.257Z,22.71
2023-03-01T04:05:06.228Z,22.68
2023-03-01T04:06:06.248Z,22.71
2023-03-01T04:07:06.266Z,22.71
2023-03-01T04:08:06.264Z,22.69
2023-03-01T04:09:06.250Z,22.69
2023-03-01T04:10:06.264Z,22.68
2023-03-01T04:11:06.282Z,22.69
2023-03-01T04:12:06.333Z,22.69
2023-03-01T04:13:06.298Z,22.69
2023-03-01T04:14:06.281Z,22.71
2023-03-01T04:15:06.259Z,22.68
2023-03-01T04:16:06.315Z,22.71
2023-03-01T04:17:06.271Z,22.69
2023-03-01T04:18:06.256Z,22.69
2023-03-01T04:19:06.233Z,22.71
2023-03-01T04:20:06.240Z,22.66
2023-03-01T04:21:06.261Z,22.68
2023-03-01T04:22:06.782Z,22.69
2023-03-01T04:23:06.238Z,22.69
2023-03-01T04:24:06.254Z,22.68
2023-03-01T04:25:06.245Z,22.69
2023-03-01T04:26:06.238Z,22.69
2023-03-01T04:27:06.264Z,22.66
2023-03-01T05:39:06.379Z,22.71
2023-03-01T05:40:06.350Z,22.69
2023-03-01T05:41:06.325Z,22.71
2023-03-01T05:42:06.313Z,22.69
2023-03-01T05:43:06.320Z,22.71
2023-03-01T05:44:06.288Z,22.69
2023-03-01T05:45:06.266Z,22.71
2023-03-01T05:46:06.299Z,22.69
2023-03-01T05:48:06.221Z,22.69
2023-03-01T05:49:06.214Z,22.71
2023-03-01T05:50:06.262Z,22.68
2023-03-01T05:51:06.194Z,22.69
2023-03-01T05:52:06.182Z,22.69
2023-03-01T05:53:06.174Z,22.72
2023-03-01T05:54:06.160Z,22.69
2023-03-01T05:55:06.182Z,22.69
2023-03-01T05:56:06.178Z,22.69
2023-03-01T05:57:06.151Z,22.71
2023-03-01T05:58:06.158Z,22.69
2023-03-01T05:59:06.174Z,22.68
2023-03-01T06:00:06.216Z,22.71
2023-03-01T06:30:06.687Z,23.02
2023-03-01T06:31:06.747Z,23.09
2023-03-01T06:32:06.873Z,23.12
2023-03-01T06:33:06.761Z,23.22
2023-03-01T06:34:06.796Z,23.29
2023-03-01T06:35:07.254Z,23.31
2023-03-01T06:36:06.785Z,23.40
2023-03-01T06:37:06.791Z,23.43
2023-03-01T06:38:06.780Z,23.49
2023-03-01T06:39:06.755Z,23.51
2023-03-01T06:40:06.739Z,23.58
2023-03-01T06:41:06.725Z,23.60
2023-03-01T06:42:06.841Z,23.64
2023-03-01T06:43:06.693Z,23.65
2023-03-01T06:44:06.660Z,23.72
2023-03-01T06:45:06.628Z,23.72
2023-03-01T06:46:06.607Z,23.75
2023-03-01T06:53:06.426Z,23.98
2023-03-01T07:04:06.423Z,24.16
2023-03-01T07:21:07.370Z,23.68
2023-03-01T07:26:06.672Z,22.48
2023-03-01T07:27:06.709Z,22.47
2023-03-01T07:28:06.725Z,22.44
2023-03-01T07:29:06.769Z,22.44
2023-03-01T07:30:06.767Z,22.45
2023-03-01T07:32:06.897Z,22.55
2023-03-01T07:33:07.393Z,22.61
2023-03-01T07:34:06.686Z,22.71
2023-03-01T07:35:07.353Z,22.80
2023-03-01T07:56:07.353Z,24.16
2023-03-01T08:05:07.407Z,24.48
2023-03-01T08:06:06.396Z,24.49
2023-03-01T08:07:07.350Z,24.53
2023-03-01T08:08:06.301Z,24.53
2023-03-01T08:09:06.382Z,24.57
2023-03-01T08:10:06.197Z,24.59
2023-03-01T08:11:06.162Z,24.62
2023-03-01T08:12:06.107Z,24.62
2023-03-01T08:13:06.057Z,24.63
2023-03-01T08:14:06.010Z,24.63
2023-03-01T08:15:05.976Z,24.62
2023-03-01T08:16:05.988Z,24.59
2023-03-01T08:17:05.866Z,24.55
2023-03-01T08:18:05.839Z,24.52
2023-03-01T08:19:05.877Z,24.49
2023-03-01T08:20:05.862Z,24.44
2023-03-01T08:21:05.904Z,24.40
2023-03-01T08:22:05.929Z,24.36
2023-03-01T08:23:05.945Z,24.35
2023-03-01T08:24:05.983Z,24.28
2023-03-01T08:25:06.005Z,24.25
2023-03-01T08:26:06.968Z,24.22
2023-03-01T08:27:05.922Z,24.16
2023-03-01T08:28:06.833Z,24.13
2023-03-01T08:29:05.845Z,24.09
2023-03-01T08:30:05.826Z,24.05
2023-03-01T08:31:05.825Z,24.01
2023-03-01T08:32:05.852Z,23.99
2023-03-01T08:33:05.717Z,23.97
2023-03-01T08:34:05.690Z,23.92
2023-03-01T08:35:05.636Z,23.91
2023-03-01T08:36:05.600Z,23.85
2023-03-01T08:37:05.599Z,23.85
2023-03-01T08:38:05.546Z,23.81
2023-03-01T08:39:05.531Z,23.78
2023-03-01T08:40:05.479Z,23.78
2023-03-01T08:41:05.481Z,23.75
2023-03-01T08:42:05.458Z,23.71
2023-03-01T08:43:05.386Z,23.71
2023-03-01T08:44:05.350Z,23.70
2023-03-01T08:45:05.327Z,23.67
2023-03-01T08:46:05.288Z,23.64
2023-03-01T08:47:05.277Z,23.65
2023-03-01T08:48:05.248Z,23.62
2023-03-01T08:49:05.245Z,23.62
2023-03-01T08:50:05.388Z,23.61
2023-03-01T08:51:05.228Z,23.60
2023-03-01T08:52:05.223Z,23.58
2023-03-01T08:53:05.219Z,23.58
2023-03-01T08:54:05.211Z,23.56
2023-03-01T08:55:05.208Z,23.57
2023-03-01T08:56:05.194Z,23.56
2023-03-01T08:57:05.196Z,23.53
2023-03-01T08:58:05.192Z,23.56
2023-03-01T08:59:05.183Z,23.54
2023-03-01T09:00:05.249Z,23.51
2023-03-01T09:01:05.177Z,23.53
2023-03-01T09:02:05.190Z,23.54
2023-03-01T09:03:05.174Z,23.50
2023-03-01T09:04:05.167Z,23.50
2023-03-01T09:05:05.144Z,23.51
2023-03-01T09:06:05.133Z,23.50
2023-03-01T09:07:05.135Z,23.51
2023-03-01T09:08:05.170Z,23.51
2023-03-01T09:09:05.113Z,23.51
2023-03-01T09:10:05.116Z,23.50
2023-03-01T09:11:05.092Z,23.50
2023-03-01T09:12:05.092Z,23.53
2023-03-01T09:13:05.892Z,23.49
2023-03-01T09:14:05.069Z,23.51
2023-03-01T09:15:05.083Z,23.50
2023-03-01T09:16:06.030Z,23.50
2023-03-01T09:17:05.082Z,23.50
2023-03-01T09:18:05.077Z,23.51
2023-03-01T09:19:04.930Z,23.53
2023-03-01T09:20:04.883Z,23.50
2023-03-01T09:21:04.840Z,23.51
2023-03-01T09:22:04.798Z,23.53
2023-03-01T09:23:04.873Z,23.51
2023-03-01T09:24:04.796Z,23.51
2023-03-01T09:25:04.702Z,23.53
2023-03-01T09:26:04.694Z,23.53
2023-03-01T09:27:04.637Z,23.54
2023-03-01T09:28:04.602Z,23.54
2023-03-01T09:29:04.566Z,23.53
2023-03-01T09:30:04.520Z,23.51
2023-03-01T09:44:04.177Z,23.64
2023-03-01T09:55:03.969Z,23.72
2023-03-01T09:56:04.033Z,23.75
2023-03-01T09:57:03.930Z,23.71
2023-03-01T09:58:03.895Z,23.75
2023-03-01T09:59:03.885Z,23.75
2023-03-01T10:00:03.848Z,23.77
2023-03-01T10:01:03.895Z,23.78
2023-03-01T10:02:03.794Z,23.80
2023-03-01T10:03:03.755Z,23.78
2023-03-01T10:04:03.770Z,23.80
2023-03-01T10:05:03.743Z,23.81
2023-03-01T14:03:59.054Z,26.17
2023-03-01T14:13:58.620Z,26.55
2023-03-01T14:14:58.404Z,26.59
2023-03-01T14:15:58.388Z,26.59
2023-03-01T14:16:58.286Z,26.62
2023-03-01T14:17:58.232Z,26.67
2023-03-01T14:18:58.156Z,26.67
2023-03-01T14:19:58.096Z,26.68
2023-03-01T14:20:58.170Z,26.68
2023-03-01T14:21:58.038Z,26.70
2023-03-01T14:22:57.909Z,26.67
2023-03-01T14:23:57.851Z,26.64
2023-03-01T14:24:57.862Z,26.58
2023-03-01T14:25:57.747Z,26.54
2023-03-01T21:41:54.030Z,23.10
2023-03-01T21:47:54.155Z,23.10
2023-03-01T21:49:54.201Z,23.07
2023-03-01T21:51:54.253Z,23.07
2023-03-01T21:52:54.310Z,23.09
2023-03-01T21:53:54.271Z,23.09
2023-03-01T21:54:54.289Z,23.07
2023-03-01T21:55:54.312Z,23.05
2023-03-01T21:57:54.350Z,23.09
2023-03-01T21:58:54.364Z,23.07
2023-03-01T21:59:54.401Z,23.06
2023-03-01T22:00:54.481Z,23.07
2023-03-01T22:01:54.425Z,23.03
2023-03-01T22:02:54.468Z,23.07
2023-03-01T22:03:54.458Z,23.05
2023-03-01T22:04:54.491Z,23.06
2023-03-01T22:05:54.515Z,23.07
2023-03-01T22:06:54.612Z,23.05
2023-03-01T22:07:54.613Z,23.05
2023-03-01T22:08:54.567Z,23.05
2023-03-01T22:09:54.594Z,23.07
2023-03-01T22:10:54.607Z,23.05
2023-03-01T22:11:54.636Z,23.05
2023-03-01T22:12:54.669Z,23.05
2023-03-01T22:13:54.755Z,23.05
2023-03-01T22:14:54.711Z,23.03
2023-03-01T22:15:54.742Z,23.05
2023-03-01T22:16:54.828Z,23.05
2023-03-01T22:17:54.804Z,23.03
2023-03-01T22:18:54.823Z,23.05
2023-03-01T22:19:54.848Z,23.05
2023-03-01T22:20:54.889Z,23.03
2023-03-01T22:21:55.165Z,23.03
2023-03-01T22:22:54.941Z,23.03
2023-03-01T22:23:54.982Z,23.02
2023-03-01T22:24:54.995Z,23.03
2023-03-01T22:25:55.030Z,23.03
2023-03-01T22:26:55.057Z,23.05
2023-03-01T22:27:55.081Z,23.02
2023-03-01T22:28:55.122Z,23.03
2023-03-01T22:29:55.137Z,23.02
2023-03-01T22:30:55.177Z,23.02
2023-03-01T22:31:55.340Z,23.03
2023-03-01T22:32:55.247Z,23.02
2023-03-01T22:34:55.281Z,23.03
2023-03-01T22:35:55.349Z,23.02
2023-03-01T22:36:55.411Z,23.01
2023-03-01T22:37:55.377Z,23.01
2023-03-01T22:38:55.502Z,23.02
2023-03-01T22:39:55.431Z,23.02
2023-03-01T22:40:55.457Z,23.02
2023-03-01T22:41:55.496Z,23.03
2023-03-01T22:42:55.515Z,23.02
2023-03-01T22:43:55.540Z,23.03
2023-03-01T22:44:55.572Z,22.99
2023-03-01T22:45:55.651Z,23.02
2023-03-01T22:46:55.634Z,23.02
2023-03-01T22:47:55.667Z,23.01
2023-03-01T22:48:55.718Z,23.01
2023-03-01T22:49:55.745Z,23.01
2023-03-01T22:50:55.767Z,23.01
2023-03-01T22:51:56.597Z,23.02
2023-03-01T22:52:55.813Z,22.99
2023-03-01T22:53:55.849Z,23.01
2023-03-01T22:54:55.876Z,22.99
2023-03-01T22:55:55.898Z,23.01
2023-03-01T22:56:55.931Z,23.01
2023-03-01T22:57:55.969Z,22.98
2023-03-01T22:58:56.047Z,22.99
2023-03-01T22:59:56.021Z,22.98
2023-03-01T23:00:56.043Z,22.99
2023-03-01T23:01:56.120Z,22.98
2023-03-01T23:02:56.800Z,23.01
2023-03-01T23:03:56.145Z,22.98
2023-03-01T23:04:56.153Z,22.98
2023-03-01T23:05:56.187Z,22.99
2023-03-01T23:06:56.260Z,22.99
2023-03-01T23:07:56.312Z,23.01
2023-03-01T23:08:56.286Z,22.98
2023-03-01T23:09:56.312Z,22.99
2023-03-01T23:10:56.354Z,22.98
2023-03-01T23:12:56.491Z,22.96
2023-03-01T23:44:58.207Z,22.93
2023-03-01T23:57:57.742Z,22.95
2023-03-01T23:58:58.699Z,22.91
2023-03-01T23:59:57.830Z,22.92
